Time;durP1;ratioP1;P1;durP2;ratioP2;P2;SDS_P1;SDS_P2;PMS_P1;PMS_P2;Temp;Humidity;BMP_temperature;BMP_pressure;BME280_temperature;BME280_humidity;BME280_pressure;Samples;Min_cycle;Max_cycle;Signal;HPM_P1;HPM_P2
2022/04/02 00:01:07;;;;;;;9.48;2.70;;;;;;;;;;5018454;28;20109;-69
2022/04/02 00:03:33;;;;;;;6.38;2.60;;;;;;;;;;5018698;28;20037;-69
2022/04/02 00:05:58;;;;;;;5.30;2.47;;;;;;;;;;5019763;28;20032;-69
2022/04/02 00:08:25;;;;;;;10.85;2.67;;;;;;;;;;4971063;28;20370;-69
2022/04/02 00:10:54;;;;;;;10.02;2.95;;;;;;;;;;5018703;28;20057;-69
2022/04/02 00:13:19;;;;;;;8.00;3.30;;;;;;;;;;5001329;28;20658;-70
2022/04/02 00:15:45;;;;;;;8.43;3.03;;;;;;;;;;5018263;28;20028;-69
2022/04/02 00:18:10;;;;;;;7.28;2.90;;;;;;;;;;5018352;28;20049;-69
2022/04/02 00:20:36;;;;;;;7.97;3.60;;;;;;;;;;5022090;28;20132;-71
2022/04/02 00:25:45;;;;;;;8.27;2.90;;;;;;;;;;5022241;28;20025;-71
2022/04/02 00:28:13;;;;;;;6.28;2.85;;;;;;;;;;5005236;28;20025;-71
2022/04/02 00:30:40;;;;;;;9.23;3.40;;;;;;;;;;5023044;28;20029;-72
2022/04/02 00:33:05;;;;;;;7.70;3.30;;;;;;;;;;5023336;28;20060;-71
2022/04/02 00:35:31;;;;;;;7.47;3.10;;;;;;;;;;5022797;28;20017;-71
2022/04/02 00:37:56;;;;;;;8.60;2.95;;;;;;;;;;5022354;28;20044;-72
2022/04/02 00:40:21;;;;;;;9.82;3.53;;;;;;;;;;5021703;28;20249;-71
2022/04/02 00:42:47;;;;;;;9.02;3.80;;;;;;;;;;5021886;28;20032;-71
2022/04/02 00:45:17;;;;;;;10.73;3.63;;;;;;;;;;5003897;28;20052;-71
2022/04/02 00:47:42;;;;;;;15.23;3.97;;;;;;;;;;5021622;28;20036;-71
2022/04/02 00:50:08;;;;;;;8.63;3.15;;;;;;;;;;5022074;28;20035;-71
2022/04/02 00:52:34;;;;;;;7.78;3.03;;;;;;;;;;5022785;28;20043;-71
2022/04/02 00:55:02;;;;;;;11.43;3.78;;;;;;;;;;5021380;28;20516;-71
2022/04/02 00:57:29;;;;;;;8.15;3.13;;;;;;;;;;5021208;28;20070;-72
2022/04/02 00:59:54;;;;;;;9.05;3.95;;;;;;;;;;5021467;28;20443;-71
2022/04/02 01:02:22;;;;;;;8.82;3.17;;;;;;;;;;5021152;28;20027;-71
2022/04/02 01:04:50;;;;;;;8.30;3.58;;;;;;;;;;5021993;28;20043;-71
2022/04/02 01:07:16;;;;;;;7.22;3.00;;;;;;;;;;5021614;28;20036;-73
2022/04/02 01:09:41;;;;;;;10.02;3.50;;;;;;;;;;5006412;28;20511;-71
2022/04/02 01:12:07;;;;;;;9.60;3.40;;;;;;;;;;5020224;28;20048;-72
2022/04/02 01:14:32;;;;;;;10.80;3.45;;;;;;;;;;5020165;28;20152;-71
2022/04/02 01:17:01;;;;;;;9.77;3.75;;;;;;;;;;5022638;28;20216;-73
2022/04/02 01:19:29;;;;;;;9.70;3.25;;;;;;;;;;5022512;28;20045;-71
2022/04/02 01:21:54;;;;;;;6.30;3.47;;;;;;;;;;5020886;28;20048;-71
2022/04/02 01:24:20;;;;;;;8.68;3.47;;;;;;;;;;5016046;28;20033;-71
2022/04/02 01:26:46;;;;;;;6.10;3.15;;;;;;;;;;5022006;28;20338;-71
2022/04/02 01:29:14;;;;;;;9.50;3.10;;;;;;;;;;5023487;28;20033;-73
2022/04/02 01:31:43;;;;;;;6.13;2.70;;;;;;;;;;5020047;28;20098;-73
2022/04/02 01:34:08;;;;;;;7.85;3.30;;;;;;;;;;5002698;28;20147;-71
2022/04/02 01:36:33;;;;;;;9.57;3.22;;;;;;;;;;5001996;28;20443;-72
2022/04/02 01:38:59;;;;;;;9.38;3.25;;;;;;;;;;5021107;28;20060;-72
2022/04/02 01:41:24;;;;;;;6.57;2.92;;;;;;;;;;5003813;28;20231;-73
2022/04/02 01:43:52;;;;;;;11.10;3.08;;;;;;;;;;5019383;28;20059;-71
2022/04/02 01:46:17;;;;;;;5.68;3.17;;;;;;;;;;5003105;28;20123;-73
2022/04/02 01:48:43;;;;;;;7.28;3.00;;;;;;;;;;5011006;28;20040;-71
2022/04/02 01:51:08;;;;;;;8.57;3.20;;;;;;;;;;5006340;28;20895;-71
2022/04/02 01:53:36;;;;;;;5.38;2.80;;;;;;;;;;5020150;28;20494;-74
2022/04/02 01:56:02;;;;;;;6.70;3.28;;;;;;;;;;5022314;28;20029;-72
2022/04/02 01:58:27;;;;;;;6.15;3.10;;;;;;;;;;5020092;28;20281;-71
2022/04/02 02:00:53;;;;;;;5.22;2.78;;;;;;;;;;5021122;28;20021;-73
2022/04/02 02:03:18;;;;;;;4.88;2.50;;;;;;;;;;5022093;28;20477;-73
2022/04/02 02:05:47;;;;;;;6.75;3.13;;;;;;;;;;5021884;28;20569;-73
2022/04/02 02:08:12;;;;;;;5.60;2.97;;;;;;;;;;5020154;28;20034;-72
2022/04/02 02:10:38;;;;;;;5.90;3.00;;;;;;;;;;5001678;28;20039;-73
2022/04/02 02:13:06;;;;;;;8.07;2.90;;;;;;;;;;5020544;28;20040;-73
2022/04/02 02:15:31;;;;;;;7.07;3.50;;;;;;;;;;5019653;28;20033;-73
2022/04/02 02:17:59;;;;;;;7.97;2.75;;;;;;;;;;5020809;28;20080;-73
2022/04/02 02:20:25;;;;;;;6.80;3.08;;;;;;;;;;5009674;28;20146;-71
2022/04/02 02:22:51;;;;;;;7.97;3.10;;;;;;;;;;5021221;28;20087;-71
2022/04/02 02:25:17;;;;;;;6.18;2.80;;;;;;;;;;4995833;28;20045;-71
2022/04/02 02:27:45;;;;;;;6.05;3.22;;;;;;;;;;5003316;28;20037;-73
2022/04/02 02:30:11;;;;;;;6.35;2.60;;;;;;;;;;5019959;28;20150;-71
2022/04/02 02:32:37;;;;;;;7.53;2.78;;;;;;;;;;5021281;28;20068;-71
2022/04/02 02:38:05;;;;;;;7.80;2.75;;;;;;;;;;5020219;28;20038;-71
2022/04/02 02:40:31;;;;;;;9.88;2.92;;;;;;;;;;5020687;28;20344;-71
2022/04/02 02:42:59;;;;;;;6.70;2.60;;;;;;;;;;5002703;28;20378;-71
2022/04/02 02:45:28;;;;;;;7.32;2.58;;;;;;;;;;5019067;28;20027;-71
2022/04/02 02:47:53;;;;;;;7.50;2.40;;;;;;;;;;5010261;28;20025;-71
2022/04/02 02:50:19;;;;;;;7.47;2.80;;;;;;;;;;5018373;28;20132;-71
2022/04/02 02:52:45;;;;;;;7.47;3.08;;;;;;;;;;5020138;28;20033;-72
2022/04/02 02:55:15;;;;;;;8.45;3.03;;;;;;;;;;5020376;28;20106;-73
2022/04/02 02:57:41;;;;;;;5.85;2.45;;;;;;;;;;5020383;28;20029;-72
2022/04/02 03:00:10;;;;;;;10.27;2.80;;;;;;;;;;5019864;28;20174;-72
2022/04/02 03:02:38;;;;;;;6.60;2.63;;;;;;;;;;5019491;28;20155;-72
2022/04/02 03:05:10;;;;;;;10.25;3.47;;;;;;;;;;4987934;28;20033;-72
2022/04/02 03:07:37;;;;;;;6.30;3.00;;;;;;;;;;5018953;28;20040;-72
2022/04/02 03:10:02;;;;;;;10.88;3.35;;;;;;;;;;5020041;28;20719;-72
2022/04/02 03:12:28;;;;;;;8.93;2.80;;;;;;;;;;5010181;28;20033;-73
2022/04/02 03:14:54;;;;;;;8.32;2.90;;;;;;;;;;5019990;28;20453;-73
2022/04/02 03:17:19;;;;;;;10.02;3.03;;;;;;;;;;5020353;28;20508;-72
2022/04/02 03:19:49;;;;;;;6.13;2.70;;;;;;;;;;5002154;28;20307;-73
2022/04/02 03:22:15;;;;;;;7.80;2.80;;;;;;;;;;5020831;28;20041;-73
2022/04/02 03:24:43;;;;;;;9.20;2.70;;;;;;;;;;5007954;28;20029;-72
2022/04/02 03:27:09;;;;;;;7.35;3.05;;;;;;;;;;5019607;28;20112;-72
2022/04/02 03:29:36;;;;;;;5.90;2.90;;;;;;;;;;5020015;28;20043;-73
2022/04/02 03:32:04;;;;;;;4.70;2.70;;;;;;;;;;5019046;28;20562;-72
2022/04/02 03:34:30;;;;;;;6.72;2.75;;;;;;;;;;5020975;28;20048;-72
2022/04/02 03:36:55;;;;;;;6.15;2.70;;;;;;;;;;5001359;28;20037;-72
2022/04/02 03:39:20;;;;;;;7.50;2.78;;;;;;;;;;5018093;28;20029;-72
2022/04/02 03:41:46;;;;;;;5.95;2.55;;;;;;;;;;5019986;28;20095;-72
2022/04/02 03:44:11;;;;;;;3.90;2.08;;;;;;;;;;4987801;28;20048;-73
2022/04/02 03:49:22;;;;;;;10.55;2.63;;;;;;;;;;5002540;28;20128;-73
2022/04/02 03:51:52;;;;;;;8.48;2.45;;;;;;;;;;5001106;28;20037;-73
2022/04/02 03:54:19;;;;;;;4.70;2.47;;;;;;;;;;5020796;28;20064;-73
2022/04/02 03:56:44;;;;;;;9.80;2.53;;;;;;;;;;5024613;28;20104;-73
2022/04/02 03:59:11;;;;;;;7.05;2.35;;;;;;;;;;5013943;28;20164;-73
2022/04/02 04:01:37;;;;;;;5.68;2.47;;;;;;;;;;5006030;28;20040;-73
2022/04/02 04:04:04;;;;;;;5.88;2.50;;;;;;;;;;5023438;28;20291;-73
2022/04/02 04:06:29;;;;;;;7.47;2.40;;;;;;;;;;5024213;28;20033;-73
2022/04/02 04:08:56;;;;;;;8.15;2.85;;;;;;;;;;4992869;28;20385;-73
2022/04/02 04:11:25;;;;;;;5.65;2.88;;;;;;;;;;5009077;28;20418;-73
2022/04/02 04:13:50;;;;;;;5.50;2.70;;;;;;;;;;5024450;28;20615;-73
2022/04/02 04:16:19;;;;;;;3.80;2.15;;;;;;;;;;5005623;28;20132;-73
2022/04/02 04:18:46;;;;;;;6.55;2.55;;;;;;;;;;5022788;28;21995;-72
2022/04/02 04:21:15;;;;;;;6.63;2.67;;;;;;;;;;5022462;28;20116;-73
2022/04/02 04:23:40;;;;;;;5.78;2.53;;;;;;;;;;5024784;28;20036;-72
2022/04/02 04:26:06;;;;;;;4.28;2.10;;;;;;;;;;5022860;28;20497;-73
2022/04/02 04:28:31;;;;;;;4.88;2.15;;;;;;;;;;4992742;28;21808;-73
2022/04/02 04:31:04;;;;;;;5.22;2.53;;;;;;;;;;5023895;28;20041;-73
2022/04/02 04:33:30;;;;;;;5.22;2.72;;;;;;;;;;5006014;28;20135;-73
2022/04/02 04:35:56;;;;;;;7.10;2.33;;;;;;;;;;5023754;28;20111;-73
2022/04/02 04:38:22;;;;;;;6.55;2.50;;;;;;;;;;5023646;28;20059;-73
2022/04/02 04:40:50;;;;;;;5.40;2.70;;;;;;;;;;5006660;28;20421;-73
2022/04/02 04:43:16;;;;;;;8.68;3.00;;;;;;;;;;5022288;28;20060;-73
2022/04/02 04:45:41;;;;;;;6.55;3.00;;;;;;;;;;5025953;28;20273;-72
2022/04/02 04:48:07;;;;;;;5.78;2.67;;;;;;;;;;5024021;28;20432;-72
2022/04/02 04:50:34;;;;;;;8.23;3.17;;;;;;;;;;5022326;28;20025;-72
2022/04/02 04:52:59;;;;;;;8.77;3.00;;;;;;;;;;5022859;28;20449;-72
2022/04/02 04:55:24;;;;;;;6.20;3.25;;;;;;;;;;5024798;28;20033;-73
2022/04/02 04:57:53;;;;;;;8.95;3.05;;;;;;;;;;5023633;28;20177;-72
2022/04/02 05:00:19;;;;;;;9.35;3.47;;;;;;;;;;5022606;28;20083;-71
2022/04/02 05:02:47;;;;;;;6.45;3.35;;;;;;;;;;5023526;28;20144;-71
2022/04/02 05:05:15;;;;;;;6.00;3.00;;;;;;;;;;5004571;28;20250;-71
2022/04/02 05:07:43;;;;;;;7.82;3.40;;;;;;;;;;5022843;28;20040;-72
2022/04/02 05:10:11;;;;;;;7.55;3.20;;;;;;;;;;5003918;28;20029;-73
2022/04/02 05:12:37;;;;;;;6.95;3.22;;;;;;;;;;4989853;28;20025;-73
2022/04/02 05:15:03;;;;;;;6.75;2.90;;;;;;;;;;5021952;28;20063;-72
2022/04/02 05:17:29;;;;;;;6.65;3.00;;;;;;;;;;5016773;28;20021;-73
2022/04/02 05:19:59;;;;;;;7.18;3.10;;;;;;;;;;5004312;28;20471;-72
2022/04/02 05:22:30;;;;;;;8.15;2.97;;;;;;;;;;5020563;28;20201;-72
2022/04/02 05:24:55;;;;;;;5.70;2.97;;;;;;;;;;5021328;28;20064;-72
2022/04/02 05:27:24;;;;;;;5.85;2.90;;;;;;;;;;5022537;28;20048;-72
2022/04/02 05:29:50;;;;;;;6.65;3.10;;;;;;;;;;5023075;28;20087;-72
2022/04/02 05:32:16;;;;;;;8.43;3.03;;;;;;;;;;5021480;28;20116;-72
2022/04/02 05:34:44;;;;;;;6.80;3.03;;;;;;;;;;5023951;28;20037;-72
2022/04/02 05:37:09;;;;;;;7.90;3.05;;;;;;;;;;5020049;28;20492;-72
2022/04/02 05:39:37;;;;;;;5.65;3.28;;;;;;;;;;5003669;28;20350;-73
2022/04/02 05:42:05;;;;;;;4.93;3.00;;;;;;;;;;5003013;28;20032;-72
2022/04/02 05:44:30;;;;;;;5.28;3.03;;;;;;;;;;5020490;28;20116;-72
2022/04/02 05:46:58;;;;;;;6.18;3.00;;;;;;;;;;5021895;28;20063;-71
2022/04/02 05:49:24;;;;;;;10.40;3.42;;;;;;;;;;5022413;28;20120;-73
2022/04/02 05:51:49;;;;;;;9.70;3.20;;;;;;;;;;5022472;28;20040;-71
2022/04/02 05:54:17;;;;;;;7.70;3.10;;;;;;;;;;5020907;28;20028;-71
2022/04/02 05:56:43;;;;;;;7.15;3.10;;;;;;;;;;5002936;28;20034;-71
2022/04/02 05:59:09;;;;;;;7.07;3.55;;;;;;;;;;5020052;28;21811;-71
2022/04/02 06:01:35;;;;;;;6.00;2.72;;;;;;;;;;4988867;28;20140;-73
2022/04/02 06:04:00;;;;;;;6.82;3.25;;;;;;;;;;5012527;28;20116;-72
2022/04/02 06:06:26;;;;;;;6.47;3.60;;;;;;;;;;5021606;28;20032;-72
2022/04/02 06:08:54;;;;;;;5.88;3.50;;;;;;;;;;5018850;28;20174;-71
2022/04/02 06:11:20;;;;;;;6.45;3.35;;;;;;;;;;5005405;28;22406;-72
2022/04/02 06:13:46;;;;;;;15.25;3.80;;;;;;;;;;5021484;28;20043;-72
2022/04/02 06:16:12;;;;;;;7.18;3.60;;;;;;;;;;5003319;28;20021;-72
2022/04/02 06:18:41;;;;;;;7.60;3.60;;;;;;;;;;5022556;28;20333;-71
2022/04/02 06:21:07;;;;;;;8.00;3.25;;;;;;;;;;5021350;28;20071;-71
2022/04/02 06:23:33;;;;;;;6.60;2.97;;;;;;;;;;5023015;28;20033;-71
2022/04/02 06:25:59;;;;;;;7.30;3.00;;;;;;;;;;5008023;28;20037;-70
2022/04/02 06:28:24;;;;;;;8.85;2.80;;;;;;;;;;5022205;28;20564;-71
2022/04/02 06:30:49;;;;;;;9.27;2.53;;;;;;;;;;5020215;28;20495;-71
2022/04/02 06:33:15;;;;;;;6.97;2.58;;;;;;;;;;5022781;28;20061;-70
2022/04/02 06:35:43;;;;;;;4.40;2.20;;;;;;;;;;5006432;28;20448;-70
2022/04/02 06:38:08;;;;;;;5.35;2.10;;;;;;;;;;5021974;28;20124;-70
2022/04/02 06:40:33;;;;;;;4.65;2.30;;;;;;;;;;5019849;28;20546;-70
2022/04/02 06:42:59;;;;;;;7.30;2.38;;;;;;;;;;5019911;28;20045;-70
2022/04/02 06:45:27;;;;;;;5.78;2.28;;;;;;;;;;4984060;28;20021;-69
2022/04/02 06:47:52;;;;;;;6.65;2.50;;;;;;;;;;5019233;28;20549;-69
2022/04/02 06:50:18;;;;;;;5.93;2.28;;;;;;;;;;5018870;28;20025;-69
2022/04/02 06:52:43;;;;;;;5.53;2.20;;;;;;;;;;5020009;28;20033;-69
2022/04/02 06:55:11;;;;;;;4.82;2.30;;;;;;;;;;5019623;28;20033;-68
2022/04/02 06:57:43;;;;;;;6.35;2.40;;;;;;;;;;5020462;28;20558;-67
2022/04/02 07:00:11;;;;;;;5.35;2.30;;;;;;;;;;5019159;28;20013;-69
2022/04/02 07:02:38;;;;;;;4.45;2.28;;;;;;;;;;5018054;28;20363;-67
2022/04/02 07:05:09;;;;;;;6.85;2.00;;;;;;;;;;5019395;28;20067;-69
2022/04/02 07:07:34;;;;;;;4.43;2.20;;;;;;;;;;5001453;28;20067;-69
2022/04/02 07:10:06;;;;;;;6.20;2.30;;;;;;;;;;5018655;28;20044;-69
2022/04/02 07:12:37;;;;;;;7.30;2.08;;;;;;;;;;5003528;28;20029;-68
2022/04/02 07:15:08;;;;;;;5.88;1.75;;;;;;;;;;5017780;28;20050;-69
2022/04/02 07:17:34;;;;;;;5.32;2.25;;;;;;;;;;5003867;28;21907;-69
2022/04/02 07:20:00;;;;;;;9.20;2.10;;;;;;;;;;5018379;28;20047;-70
2022/04/02 07:22:26;;;;;;;6.70;2.22;;;;;;;;;;5019985;28;20060;-69
2022/04/02 07:24:53;;;;;;;4.10;1.95;;;;;;;;;;5019006;28;20143;-69
2022/04/02 07:27:27;;;;;;;6.72;1.80;;;;;;;;;;5020847;28;20040;-69
2022/04/02 07:29:53;;;;;;;5.82;2.28;;;;;;;;;;5007216;28;20042;-68
2022/04/02 07:32:21;;;;;;;6.43;1.83;;;;;;;;;;5024465;28;20068;-68
2022/04/02 07:34:46;;;;;;;5.05;1.90;;;;;;;;;;5025597;28;20821;-68
2022/04/02 07:37:17;;;;;;;7.70;1.55;;;;;;;;;;5025677;28;20091;-68
2022/04/02 07:39:51;;;;;;;4.68;1.80;;;;;;;;;;5010091;28;20061;-68
2022/04/02 07:42:23;;;;;;;4.93;1.80;;;;;;;;;;5026023;28;20055;-69
2022/04/02 07:44:49;;;;;;;6.20;1.85;;;;;;;;;;5025919;28;20125;-68
2022/04/02 07:47:17;;;;;;;4.25;2.08;;;;;;;;;;5007264;28;20040;-69
2022/04/02 07:49:48;;;;;;;5.20;2.00;;;;;;;;;;5026816;28;20404;-69
2022/04/02 07:52:16;;;;;;;4.45;1.92;;;;;;;;;;5015605;28;20044;-69
2022/04/02 07:54:42;;;;;;;6.18;1.90;;;;;;;;;;5023439;28;20063;-69
2022/04/02 07:57:09;;;;;;;7.97;2.08;;;;;;;;;;5010505;28;20039;-69
2022/04/02 07:59:44;;;;;;;5.80;1.85;;;;;;;;;;5024837;28;20313;-69
2022/04/02 08:05:02;;;;;;;5.45;1.90;;;;;;;;;;5025022;28;20033;-69
2022/04/02 08:07:31;;;;;;;4.53;1.92;;;;;;;;;;5025091;28;20111;-68
2022/04/02 08:09:57;;;;;;;5.85;1.85;;;;;;;;;;5025217;28;20029;-68
2022/04/02 08:12:23;;;;;;;4.45;1.90;;;;;;;;;;5025529;28;20472;-68
2022/04/02 08:14:51;;;;;;;5.60;1.85;;;;;;;;;;5024094;28;20588;-69
2022/04/02 08:17:18;;;;;;;7.18;1.98;;;;;;;;;;5023970;28;20025;-68
2022/04/02 08:19:48;;;;;;;6.13;2.08;;;;;;;;;;5024112;28;20048;-69
2022/04/02 08:22:16;;;;;;;3.65;1.75;;;;;;;;;;5023777;28;20132;-68
2022/04/02 08:24:42;;;;;;;2.92;2.00;;;;;;;;;;5021478;28;20033;-68
2022/04/02 08:27:28;;;;;;;4.70;1.90;;;;;;;;;;5024932;28;20183;-68
2022/04/02 08:30:13;;;;;;;6.43;2.10;;;;;;;;;;5023121;28;20548;-69
2022/04/02 08:32:54;;;;;;;4.60;1.90;;;;;;;;;;5024402;28;20025;-69
2022/04/02 08:35:24;;;;;;;5.68;2.25;;;;;;;;;;5023835;28;20045;-69
2022/04/02 08:38:17;;;;;;;4.90;2.20;;;;;;;;;;5024690;28;20543;-69
2022/04/02 08:40:47;;;;;;;4.70;1.70;;;;;;;;;;5000397;28;20113;-68
2022/04/02 08:43:32;;;;;;;2.78;1.63;;;;;;;;;;5022551;28;20429;-68
2022/04/02 08:46:10;;;;;;;3.72;1.67;;;;;;;;;;5020309;28;20489;-69
2022/04/02 08:48:46;;;;;;;4.50;1.90;;;;;;;;;;5020934;28;20056;-69
2022/04/02 08:51:13;;;;;;;5.00;2.20;;;;;;;;;;5021578;28;20476;-68
2022/04/02 08:53:57;;;;;;;4.55;1.70;;;;;;;;;;5021352;28;20029;-68
2022/04/02 08:56:26;;;;;;;4.43;1.90;;;;;;;;;;5021007;28;20029;-69
2022/04/02 08:59:05;;;;;;;3.65;1.70;;;;;;;;;;5020542;28;20030;-69
2022/04/02 09:01:40;;;;;;;6.90;1.95;;;;;;;;;;5020941;28;20587;-68
2022/04/02 09:04:46;;;;;;;5.32;1.90;;;;;;;;;;5021277;28;20466;-68
2022/04/02 09:07:24;;;;;;;3.88;1.73;;;;;;;;;;4939815;28;20759;-68
2022/04/02 09:10:08;;;;;;;3.10;1.73;;;;;;;;;;4938989;28;20031;-68
2022/04/02 09:12:45;;;;;;;6.00;1.80;;;;;;;;;;4993939;28;20043;-69
2022/04/02 09:15:12;;;;;;;4.38;1.45;;;;;;;;;;5002279;28;20032;-68
2022/04/02 09:17:40;;;;;;;4.95;1.65;;;;;;;;;;5021311;28;20076;-71
2022/04/02 09:20:27;;;;;;;4.32;1.55;;;;;;;;;;5008201;28;20041;-69
2022/04/02 09:23:07;;;;;;;5.13;1.60;;;;;;;;;;5002521;28;20107;-69
2022/04/02 09:25:44;;;;;;;2.92;1.40;;;;;;;;;;5019104;28;20377;-67
2022/04/02 09:28:15;;;;;;;3.33;1.27;;;;;;;;;;5007506;28;20396;-68
2022/04/02 09:30:59;;;;;;;3.83;1.65;;;;;;;;;;5019040;28;20021;-68
2022/04/02 09:33:46;;;;;;;3.38;1.42;;;;;;;;;;5019994;28;20443;-69
2022/04/02 09:36:14;;;;;;;3.20;1.40;;;;;;;;;;5018318;28;20074;-68
2022/04/02 09:38:43;;;;;;;3.15;1.40;;;;;;;;;;5019738;28;20029;-69
2022/04/02 09:41:22;;;;;;;2.67;1.38;;;;;;;;;;5018893;28;20120;-68
2022/04/02 09:44:08;;;;;;;3.92;1.33;;;;;;;;;;5003180;28;20071;-68
2022/04/02 09:46:48;;;;;;;3.78;1.23;;;;;;;;;;5004052;28;20570;-68
2022/04/02 09:49:27;;;;;;;2.47;1.48;;;;;;;;;;5002567;28;20120;-69
2022/04/02 09:52:16;;;;;;;2.35;1.50;;;;;;;;;;5003747;28;20402;-68
2022/04/02 09:55:00;;;;;;;2.55;1.40;;;;;;;;;;5018970;28;20049;-68
2022/04/02 09:57:34;;;;;;;2.58;1.30;;;;;;;;;;5019659;28;20107;-68
2022/04/02 10:00:05;;;;;;;4.35;1.60;;;;;;;;;;5018786;28;20022;-68
2022/04/02 10:02:36;;;;;;;3.45;1.67;;;;;;;;;;5018887;28;20021;-68
2022/04/02 10:05:05;;;;;;;4.03;1.75;;;;;;;;;;5019051;28;20024;-67
2022/04/02 10:07:47;;;;;;;1.85;1.25;;;;;;;;;;5018607;28;20358;-68
2022/04/02 10:10:14;;;;;;;3.40;1.60;;;;;;;;;;5006670;28;20029;-70
2022/04/02 10:12:46;;;;;;;5.28;1.42;;;;;;;;;;5019692;28;20029;-70
2022/04/02 10:15:14;;;;;;;2.85;1.40;;;;;;;;;;4986766;28;20198;-70
2022/04/02 10:17:46;;;;;;;6.45;1.98;;;;;;;;;;5018667;28;20033;-68
2022/04/02 10:20:17;;;;;;;2.45;1.40;;;;;;;;;;5005856;28;20136;-68
2022/04/02 10:22:43;;;;;;;3.70;1.20;;;;;;;;;;5019635;28;20061;-69
2022/04/02 10:25:11;;;;;;;2.90;1.40;;;;;;;;;;5019158;28;20395;-68
2022/04/02 10:27:38;;;;;;;3.35;1.30;;;;;;;;;;5018001;28;20037;-68
2022/04/02 10:30:10;;;;;;;2.30;1.30;;;;;;;;;;5018533;28;20035;-69
2022/04/02 10:32:51;;;;;;;5.70;1.38;;;;;;;;;;5019674;28;20028;-69
2022/04/02 10:35:18;;;;;;;2.45;1.30;;;;;;;;;;5019222;28;20602;-68
2022/04/02 10:37:48;;;;;;;3.47;1.17;;;;;;;;;;5019043;28;20055;-69
2022/04/02 10:40:17;;;;;;;3.35;1.10;;;;;;;;;;5018449;28;20090;-69
2022/04/02 10:42:49;;;;;;;3.80;1.30;;;;;;;;;;5018967;28;20032;-69
2022/04/02 10:45:17;;;;;;;3.90;1.17;;;;;;;;;;5001106;28;20037;-69
2022/04/02 10:47:47;;;;;;;2.47;1.00;;;;;;;;;;5018200;28;20049;-69
2022/04/02 10:50:15;;;;;;;1.98;0.90;;;;;;;;;;5018271;28;20580;-69
2022/04/02 10:52:41;;;;;;;3.78;1.17;;;;;;;;;;5008107;28;20539;-69
2022/04/02 10:55:07;;;;;;;2.83;0.90;;;;;;;;;;5017938;28;20040;-70
2022/04/02 10:57:35;;;;;;;2.92;1.00;;;;;;;;;;4986424;28;20410;-69
2022/04/02 11:00:07;;;;;;;2.70;0.90;;;;;;;;;;5000379;28;20052;-69
2022/04/02 11:02:42;;;;;;;3.83;1.00;;;;;;;;;;5017527;28;20385;-69
2022/04/02 11:05:13;;;;;;;2.60;0.90;;;;;;;;;;5018407;28;20026;-68
2022/04/02 11:07:45;;;;;;;4.10;1.17;;;;;;;;;;5017667;28;20453;-69
2022/04/02 11:10:14;;;;;;;3.03;1.10;;;;;;;;;;5018851;28;20730;-69
2022/04/02 11:12:48;;;;;;;5.72;1.30;;;;;;;;;;5018306;28;20082;-68
2022/04/02 11:15:21;;;;;;;3.95;1.13;;;;;;;;;;4987088;28;20123;-69
2022/04/02 11:17:51;;;;;;;3.53;1.10;;;;;;;;;;5018428;28;20741;-69
2022/04/02 11:20:21;;;;;;;2.60;1.00;;;;;;;;;;5018694;28;20041;-70
2022/04/02 11:22:54;;;;;;;3.78;0.98;;;;;;;;;;5017923;28;20021;-72
2022/04/02 11:25:22;;;;;;;4.15;1.35;;;;;;;;;;5017937;28;20131;-71
2022/04/02 11:27:51;;;;;;;2.00;0.95;;;;;;;;;;5018010;28;20025;-71
2022/04/02 11:30:18;;;;;;;4.25;1.02;;;;;;;;;;5018379;28;20183;-71
2022/04/02 11:32:48;;;;;;;1.65;0.90;;;;;;;;;;5002600;28;20094;-68
2022/04/02 11:35:14;;;;;;;3.08;0.85;;;;;;;;;;5002133;28;20124;-70
2022/04/02 11:37:51;;;;;;;3.65;1.00;;;;;;;;;;5018693;28;20028;-70
2022/04/02 11:40:18;;;;;;;2.13;0.93;;;;;;;;;;4999589;28;20029;-69
2022/04/02 11:42:47;;;;;;;2.65;0.88;;;;;;;;;;4989123;28;20197;-69
2022/04/02 11:45:16;;;;;;;2.08;0.80;;;;;;;;;;5002515;28;20032;-69
2022/04/02 11:47:46;;;;;;;4.05;1.02;;;;;;;;;;5017549;28;20072;-69
2022/04/02 11:50:12;;;;;;;2.65;0.95;;;;;;;;;;5000394;28;20029;-69
2022/04/02 11:52:50;;;;;;;2.88;1.08;;;;;;;;;;5017705;28;20036;-69
2022/04/02 11:55:15;;;;;;;2.85;0.90;;;;;;;;;;5018001;28;20395;-71
2022/04/02 11:57:55;;;;;;;2.95;1.05;;;;;;;;;;5017244;28;20741;-68
2022/04/02 12:00:24;;;;;;;3.08;1.00;;;;;;;;;;5016932;28;20133;-69
2022/04/02 12:02:52;;;;;;;3.00;1.10;;;;;;;;;;4999581;28;20098;-69
2022/04/02 12:05:20;;;;;;;2.65;1.00;;;;;;;;;;5003097;28;20036;-69
2022/04/02 12:07:52;;;;;;;3.10;1.20;;;;;;;;;;5000257;28;20437;-69
2022/04/02 12:10:27;;;;;;;4.13;1.08;;;;;;;;;;5017107;28;20101;-71
2022/04/02 12:12:54;;;;;;;3.17;1.00;;;;;;;;;;4999518;28;20924;-69
2022/04/02 12:15:20;;;;;;;5.53;1.58;;;;;;;;;;5019086;28;20481;-69
2022/04/02 12:17:47;;;;;;;2.38;1.00;;;;;;;;;;5003600;28;20029;-70
2022/04/02 12:20:17;;;;;;;5.25;1.30;;;;;;;;;;5020677;28;20045;-70
2022/04/02 12:22:44;;;;;;;2.70;1.05;;;;;;;;;;4989171;28;20033;-70
2022/04/02 12:25:13;;;;;;;4.05;1.25;;;;;;;;;;5020554;28;20199;-70
2022/04/02 12:27:39;;;;;;;4.47;1.17;;;;;;;;;;5021793;28;20064;-70
2022/04/02 12:30:08;;;;;;;2.28;0.90;;;;;;;;;;5020173;28;20032;-70
2022/04/02 12:32:34;;;;;;;2.38;0.90;;;;;;;;;;4989383;28;20233;-70
2022/04/02 12:35:09;;;;;;;6.30;1.20;;;;;;;;;;5020873;28;22514;-71
2022/04/02 12:38:02;;;;;;;7.07;1.40;;;;;;;;;;5021105;28;20025;-70
2022/04/02 12:40:30;;;;;;;3.20;1.27;;;;;;;;;;5017866;28;20558;-70
2022/04/02 12:43:00;;;;;;;2.55;1.10;;;;;;;;;;5002911;28;20048;-70
2022/04/02 12:45:27;;;;;;;5.03;1.23;;;;;;;;;;5020096;28;20037;-70
2022/04/02 12:47:57;;;;;;;3.80;1.10;;;;;;;;;;5020785;28;20025;-68
2022/04/02 12:50:23;;;;;;;2.72;1.20;;;;;;;;;;5021348;28;20032;-68
2022/04/02 12:52:49;;;;;;;4.43;1.17;;;;;;;;;;5018638;28;20614;-68
2022/04/02 12:55:17;;;;;;;4.65;1.27;;;;;;;;;;5021021;28;20025;-68
2022/04/02 12:58:03;;;;;;;2.95;1.30;;;;;;;;;;5018051;28;20401;-68
2022/04/02 13:00:37;;;;;;;3.33;1.10;;;;;;;;;;5008838;28;20116;-68
2022/04/02 13:03:05;;;;;;;4.90;1.15;;;;;;;;;;5018557;28;20523;-75
2022/04/02 13:05:50;;;;;;;3.03;1.00;;;;;;;;;;5001928;28;20247;-76
2022/04/02 13:08:24;;;;;;;4.10;1.10;;;;;;;;;;5002465;28;20028;-76
2022/04/02 13:10:53;;;;;;;4.30;1.20;;;;;;;;;;5002529;28;21972;-76
2022/04/02 13:13:49;;;;;;;5.43;1.27;;;;;;;;;;5019715;28;20056;-76
2022/04/02 13:16:15;;;;;;;2.95;1.05;;;;;;;;;;5015772;28;20434;-76
2022/04/02 13:21:38;;;;;;;4.00;1.25;;;;;;;;;;5002376;28;20033;-76
2022/04/02 13:24:18;;;;;;;2.35;1.10;;;;;;;;;;5026927;28;20378;-76
2022/04/02 13:26:54;;;;;;;2.33;0.88;;;;;;;;;;5034901;28;20021;-76
2022/04/02 13:29:33;;;;;;;4.55;1.10;;;;;;;;;;5016945;28;20116;-76
2022/04/02 13:32:01;;;;;;;3.90;1.00;;;;;;;;;;5008043;28;20124;-76
2022/04/02 13:34:41;;;;;;;5.22;1.17;;;;;;;;;;5018795;28;20033;-76
2022/04/02 13:37:26;;;;;;;3.13;1.17;;;;;;;;;;5019221;28;20575;-76
2022/04/02 13:39:55;;;;;;;5.75;1.08;;;;;;;;;;5018715;28;20762;-76
2022/04/02 13:42:25;;;;;;;3.50;1.00;;;;;;;;;;5018738;28;20028;-77
2022/04/02 13:44:53;;;;;;;3.83;1.05;;;;;;;;;;5018007;28;20120;-76
2022/04/02 13:47:22;;;;;;;4.28;1.15;;;;;;;;;;5019235;28;20028;-76
2022/04/02 13:49:57;;;;;;;2.25;0.77;;;;;;;;;;5003855;28;20035;-76
2022/04/02 13:52:29;;;;;;;2.50;0.90;;;;;;;;;;5002326;28;20028;-69
2022/04/02 13:55:04;;;;;;;5.03;1.20;;;;;;;;;;5019426;28;20029;-69
2022/04/02 13:57:31;;;;;;;4.60;0.88;;;;;;;;;;5018785;28;20547;-69
2022/04/02 14:00:10;;;;;;;3.50;0.98;;;;;;;;;;5003004;28;20190;-69
2022/04/02 14:02:36;;;;;;;4.68;1.00;;;;;;;;;;5017314;28;20036;-69
2022/04/02 14:05:25;;;;;;;2.55;0.80;;;;;;;;;;5019551;28;20029;-68
2022/04/02 14:08:05;;;;;;;3.05;1.13;;;;;;;;;;5018704;28;20057;-69
2022/04/02 14:10:31;;;;;;;4.55;1.00;;;;;;;;;;5019389;28;20049;-69
2022/04/02 14:12:59;;;;;;;3.55;0.90;;;;;;;;;;5019413;28;20041;-69
2022/04/02 14:15:26;;;;;;;2.33;0.90;;;;;;;;;;5019005;28;20029;-69
2022/04/02 14:17:57;;;;;;;4.85;1.02;;;;;;;;;;5017406;28;20060;-69
2022/04/02 14:20:24;;;;;;;2.70;0.70;;;;;;;;;;5008637;28;20037;-69
2022/04/02 14:22:53;;;;;;;1.73;0.60;;;;;;;;;;5018510;28;20102;-69
2022/04/02 14:25:34;;;;;;;2.05;0.90;;;;;;;;;;5018551;28;20236;-69
2022/04/02 14:28:14;;;;;;;2.90;0.70;;;;;;;;;;5019419;28;20033;-69
2022/04/02 14:31:01;;;;;;;3.95;0.90;;;;;;;;;;5018724;28;20484;-69
2022/04/02 14:33:35;;;;;;;4.30;0.95;;;;;;;;;;5002610;28;20125;-70
2022/04/02 14:36:21;;;;;;;4.38;0.90;;;;;;;;;;5018215;28;20653;-68
2022/04/02 14:38:46;;;;;;;3.38;0.80;;;;;;;;;;5019199;28;20344;-68
2022/04/02 14:41:27;;;;;;;2.47;1.20;;;;;;;;;;5019051;28;20025;-68
2022/04/02 14:44:01;;;;;;;4.57;0.90;;;;;;;;;;4990360;28;20029;-69
2022/04/02 14:46:39;;;;;;;4.53;1.20;;;;;;;;;;5018800;28;20033;-68
2022/04/02 14:49:30;;;;;;;2.45;1.08;;;;;;;;;;5018600;28;20064;-69
2022/04/02 14:52:15;;;;;;;3.20;0.90;;;;;;;;;;4964081;28;20041;-69
2022/04/02 14:54:49;;;;;;;4.97;1.20;;;;;;;;;;5016041;28;20029;-69
2022/04/02 14:57:29;;;;;;;5.00;0.90;;;;;;;;;;5018055;28;20221;-69
2022/04/02 15:00:16;;;;;;;2.65;0.90;;;;;;;;;;4991364;28;20033;-69
2022/04/02 15:02:44;;;;;;;1.65;0.80;;;;;;;;;;5017711;28;20099;-69
2022/04/02 15:05:17;;;;;;;3.20;0.90;;;;;;;;;;5019010;28;20135;-69
2022/04/02 15:07:42;;;;;;;;;;;;;;;;;;5017678;28;20032;-69
2022/04/02 15:10:22;;;;;;;1.65;0.70;;;;;;;;;;5017978;28;19917;-69
2022/04/02 15:12:53;;;;;;;2.65;0.70;;;;;;;;;;5017363;28;20045;-69